createdAt,value
2022-11-22T00:00:28.048Z,20.60
2022-11-22T00:02:55.809Z,20.60
2022-11-22T00:05:23.521Z,20.60
2022-11-22T00:07:51.287Z,20.60
2022-11-22T00:10:19.087Z,20.60
2022-11-22T00:12:46.827Z,20.50
2022-11-22T00:15:14.543Z,20.50
2022-11-22T00:17:43.561Z,20.50
2022-11-22T00:20:11.901Z,20.50
2022-11-22T00:22:44.215Z,20.50
2022-11-22T00:25:12.807Z,20.50
2022-11-22T00:27:40.594Z,20.50
2022-11-22T00:30:08.758Z,20.50
2022-11-22T00:32:36.431Z,20.50
2022-11-22T00:35:06.041Z,20.50
2022-11-22T00:37:33.799Z,20.50
2022-11-22T00:40:02.221Z,20.50
2022-11-22T00:42:29.887Z,20.50
2022-11-22T00:44:57.543Z,20.50
2022-11-22T00:47:25.246Z,20.50
2022-11-22T00:49:53.190Z,20.40
2022-11-22T00:52:22.272Z,20.40
2022-11-22T00:54:54.586Z,20.40
2022-11-22T00:57:22.981Z,20.40
2022-11-22T00:59:51.004Z,20.40
2022-11-22T01:02:18.922Z,20.40
2022-11-22T01:04:47.128Z,20.40
2022-11-22T01:07:14.859Z,20.40
2022-11-22T01:09:43.941Z,20.40
2022-11-22T01:12:11.647Z,20.40
2022-11-22T01:14:39.370Z,20.40
2022-11-22T01:17:07.042Z,20.30
2022-11-22T01:19:34.720Z,20.30
2022-11-22T01:22:02.392Z,20.30
2022-11-22T01:24:30.057Z,20.30
2022-11-22T01:26:59.083Z,20.30
2022-11-22T01:29:27.127Z,20.30
2022-11-22T01:31:54.867Z,20.20
2022-11-22T01:34:22.535Z,20.20
2022-11-22T01:36:50.180Z,20.30
2022-11-22T01:39:17.918Z,20.20
2022-11-22T01:41:45.607Z,20.20
2022-11-22T01:44:22.137Z,20.20
2022-11-22T01:46:50.182Z,20.30
2022-11-22T01:49:22.465Z,20.20
2022-11-22T01:51:50.671Z,20.30
2022-11-22T01:54:19.607Z,20.20
2022-11-22T01:56:48.612Z,20.20
2022-11-22T01:59:17.897Z,20.20
2022-11-22T02:01:46.893Z,20.20
2022-11-22T02:04:15.265Z,20.30
2022-11-22T02:06:47.118Z,20.30
2022-11-22T02:09:15.130Z,20.20
2022-11-22T02:11:48.149Z,20.20
2022-11-22T02:14:16.429Z,20.20
2022-11-22T02:16:44.214Z,20.20
2022-11-22T02:19:15.533Z,20.20
2022-11-22T02:21:43.423Z,20.20
2022-11-22T02:24:13.577Z,20.20
2022-11-22T02:26:42.598Z,20.20
2022-11-22T02:29:10.237Z,20.20
2022-11-22T02:31:40.911Z,20.20
2022-11-22T02:34:08.627Z,20.10
2022-11-22T02:36:38.740Z,20.10
2022-11-22T02:39:06.501Z,20.10
2022-11-22T02:41:34.129Z,20.10
2022-11-22T02:44:03.103Z,20.10
2022-11-22T02:46:30.748Z,20.10
2022-11-22T02:48:58.394Z,20.10
2022-11-22T02:51:26.461Z,20.10
2022-11-22T02:53:54.505Z,20.10
2022-11-22T02:56:22.176Z,20.00
2022-11-22T02:58:49.825Z,20.00
2022-11-22T03:01:18.853Z,20.00
2022-11-22T03:03:46.538Z,20.10
2022-11-22T03:06:14.252Z,20.00
2022-11-22T03:08:42.041Z,20.00
2022-11-22T03:11:09.696Z,20.00
2022-11-22T03:13:37.332Z,20.00
2022-11-22T03:16:05.442Z,20.00
2022-11-22T03:18:35.532Z,20.00
2022-11-22T03:21:03.531Z,20.00
2022-11-22T03:23:31.242Z,20.00
2022-11-22T03:25:58.955Z,20.00
2022-11-22T03:28:27.078Z,20.00
2022-11-22T03:30:54.720Z,20.00
2022-11-22T03:33:22.369Z,19.90
2022-11-22T03:35:51.323Z,19.90
2022-11-22T03:38:18.969Z,19.90
2022-11-22T03:40:47.224Z,19.90
2022-11-22T03:43:14.886Z,19.90
2022-11-22T03:45:45.654Z,19.90
2022-11-22T03:48:13.367Z,19.90
2022-11-22T03:50:41.058Z,19.90
2022-11-22T03:53:10.053Z,19.90
2022-11-22T03:55:37.709Z,19.90
2022-11-22T03:58:05.567Z,19.90
2022-11-22T04:00:33.257Z,19.90
2022-11-22T04:03:01.685Z,19.90
2022-11-22T04:05:29.319Z,19.90
2022-11-22T04:07:57.987Z,19.90
2022-11-22T04:10:27.086Z,19.90
2022-11-22T04:12:58.025Z,19.90
2022-11-22T04:15:24.906Z,19.90
2022-11-22T04:17:52.542Z,19.90
2022-11-22T04:20:38.914Z,19.90
2022-11-22T04:23:07.386Z,19.90
2022-11-22T04:25:37.828Z,19.90
2022-11-22T04:28:05.721Z,19.90
2022-11-22T04:30:56.321Z,19.80
2022-11-22T04:33:24.147Z,19.90
2022-11-22T04:35:52.034Z,19.80
2022-11-22T04:38:19.862Z,19.80
2022-11-22T04:40:48.947Z,19.80
2022-11-22T04:43:39.244Z,19.80
2022-11-22T04:46:06.916Z,19.80
2022-11-22T04:48:34.588Z,19.80
2022-11-22T04:51:34.515Z,19.80
2022-11-22T04:54:02.170Z,19.80
2022-11-22T04:56:31.150Z,19.80
2022-11-22T04:58:58.819Z,19.80
2022-11-22T05:01:26.597Z,19.80
2022-11-22T05:03:54.267Z,19.70
2022-11-22T05:06:21.925Z,19.70
2022-11-22T05:08:49.581Z,19.70
2022-11-22T05:11:17.223Z,19.70
2022-11-22T05:13:46.214Z,19.70
2022-11-22T05:16:14.811Z,19.70
2022-11-22T05:18:42.650Z,19.70
2022-11-22T05:21:11.206Z,19.70
2022-11-22T05:23:56.471Z,19.70
2022-11-22T05:26:24.522Z,19.70
2022-11-22T05:28:53.627Z,19.70
2022-11-22T05:31:23.091Z,19.70
2022-11-22T05:33:51.646Z,19.60
2022-11-22T05:36:19.449Z,19.60
2022-11-22T05:38:47.186Z,19.60
2022-11-22T05:41:15.381Z,19.60
2022-11-22T05:43:43.048Z,19.60
2022-11-22T05:46:12.912Z,19.70
2022-11-22T05:48:42.583Z,19.70
2022-11-22T05:51:11.295Z,19.70
2022-11-22T05:53:39.479Z,19.60
2022-11-22T05:56:07.632Z,19.70
2022-11-22T05:58:35.564Z,19.60
2022-11-22T06:01:04.853Z,19.60
2022-11-22T06:03:34.011Z,19.70
2022-11-22T06:06:01.812Z,19.70
2022-11-22T06:08:29.899Z,19.70
2022-11-22T06:10:59.214Z,19.60
2022-11-22T06:13:27.052Z,19.60
2022-11-22T06:15:54.738Z,19.60
2022-11-22T06:18:22.430Z,19.60
2022-11-22T06:20:51.425Z,19.70
2022-11-22T06:23:19.085Z,19.70
2022-11-22T06:25:46.761Z,19.60
2022-11-22T06:28:14.419Z,19.60
2022-11-22T06:30:42.136Z,19.60
2022-11-22T06:33:09.807Z,19.60
2022-11-22T06:35:37.454Z,19.60
2022-11-22T06:38:06.459Z,19.60
2022-11-22T06:40:34.121Z,19.60
2022-11-22T06:43:01.797Z,19.60
2022-11-22T06:45:29.452Z,19.60
2022-11-22T06:47:59.108Z,19.50
2022-11-22T06:50:26.843Z,19.50
2022-11-22T06:52:54.620Z,19.50
2022-11-22T06:55:49.155Z,19.50
2022-11-22T06:58:11.291Z,19.50
2022-11-22T07:00:38.998Z,19.50
2022-11-22T07:03:06.639Z,19.50
2022-11-22T07:05:34.295Z,19.50
2022-11-22T07:08:07.909Z,19.50
2022-11-22T07:10:41.191Z,19.50
2022-11-22T07:13:08.931Z,19.50
2022-11-22T07:15:36.584Z,19.50
2022-11-22T07:18:04.279Z,19.50
2022-11-22T07:20:31.960Z,19.50
2022-11-22T07:22:59.661Z,19.40
2022-11-22T07:25:27.338Z,19.40
2022-11-22T07:27:56.480Z,19.40
2022-11-22T07:30:24.138Z,19.40
2022-11-22T07:32:51.979Z,19.40
2022-11-22T07:35:19.653Z,19.40
2022-11-22T07:37:47.964Z,19.40
2022-11-22T07:40:15.984Z,19.40
2022-11-22T07:42:43.665Z,19.40
2022-11-22T07:45:13.367Z,19.40
2022-11-22T07:47:41.024Z,19.40
2022-11-22T07:50:09.534Z,19.40
2022-11-22T07:52:37.524Z,19.40
2022-11-22T07:55:11.003Z,19.40
2022-11-22T07:57:41.457Z,19.30
2022-11-22T08:00:10.707Z,19.30
2022-11-22T08:02:39.704Z,19.30
2022-11-22T08:05:08.288Z,19.40
2022-11-22T08:07:35.991Z,19.40
2022-11-22T08:10:03.699Z,19.30
2022-11-22T08:12:31.367Z,19.30
2022-11-22T08:14:59.002Z,19.40
2022-11-22T08:17:26.699Z,19.30
2022-11-22T08:19:55.832Z,19.40
2022-11-22T08:22:23.511Z,19.40
2022-11-22T08:24:51.157Z,19.40
2022-11-22T08:27:18.869Z,19.40
2022-11-22T08:29:46.537Z,19.40
2022-11-22T08:32:14.208Z,19.30
2022-11-22T08:34:46.943Z,19.30
2022-11-22T08:37:16.457Z,19.30
2022-11-22T08:39:44.151Z,19.30
2022-11-22T08:42:11.816Z,19.30
2022-11-22T08:44:39.629Z,19.30
2022-11-22T08:47:07.311Z,19.30
2022-11-22T08:49:34.972Z,19.30
2022-11-22T08:52:02.713Z,19.30
2022-11-22T08:54:37.340Z,19.30
2022-11-22T08:57:05.536Z,19.30
2022-11-22T08:59:34.034Z,19.30
2022-11-22T09:02:02.048Z,19.30
2022-11-22T09:04:29.780Z,19.30
2022-11-22T09:09:47.150Z,19.30
2022-11-22T09:12:14.915Z,19.30
2022-11-22T09:14:42.551Z,19.20
2022-11-22T09:17:16.112Z,19.20
2022-11-22T09:19:45.374Z,19.20
2022-11-22T09:22:13.034Z,19.20
2022-11-22T09:24:40.698Z,19.20
2022-11-22T09:27:09.711Z,19.20
2022-11-22T09:29:37.351Z,19.20
2022-11-22T09:32:05.148Z,19.20
2022-11-22T09:34:32.794Z,19.20
2022-11-22T09:37:01.262Z,19.20
2022-11-22T09:39:29.568Z,19.20
2022-11-22T09:42:29.656Z,19.20
2022-11-22T09:45:22.024Z,19.20
2022-11-22T09:47:53.085Z,19.20
2022-11-22T09:50:24.129Z,19.10
2022-11-22T09:52:54.203Z,19.20
2022-11-22T09:55:24.599Z,19.20
2022-11-22T09:57:57.490Z,19.20
2022-11-22T10:00:26.061Z,19.10
2022-11-22T10:03:00.920Z,19.20
2022-11-22T10:05:31.149Z,19.20
2022-11-22T10:08:01.039Z,19.20
2022-11-22T10:10:30.632Z,19.20
2022-11-22T10:13:00.607Z,19.10
2022-11-22T10:15:30.310Z,19.10
2022-11-22T10:17:58.870Z,19.20
2022-11-22T10:20:27.279Z,19.10
2022-11-22T10:22:54.989Z,19.10
2022-11-22T10:25:23.834Z,19.10
2022-11-22T10:27:59.076Z,19.20
2022-11-22T10:30:31.044Z,19.20
2022-11-22T10:33:04.063Z,19.20
2022-11-22T10:35:39.335Z,19.20
2022-11-22T10:38:25.803Z,19.20
2022-11-22T10:40:57.172Z,19.20
2022-11-22T10:43:30.096Z,19.10
2022-11-22T10:46:02.894Z,19.10
2022-11-22T10:48:33.477Z,19.20
2022-11-22T10:51:04.642Z,19.20
2022-11-22T10:53:39.249Z,19.10
2022-11-22T10:56:09.944Z,19.20
2022-11-22T10:58:42.154Z,19.20
2022-11-22T11:01:18.495Z,19.20
2022-11-22T11:03:46.853Z,19.20
2022-11-22T11:06:24.398Z,19.20
2022-11-22T11:09:36.642Z,19.20
2022-11-22T11:11:43.484Z,19.20
2022-11-22T11:14:17.891Z,19.20
2022-11-22T11:16:46.923Z,19.20
2022-11-22T11:19:17.465Z,19.20
2022-11-22T11:21:45.180Z,19.20
2022-11-22T11:24:15.215Z,19.10
2022-11-22T11:26:43.583Z,19.10
2022-11-22T11:29:38.304Z,19.10
2022-11-22T11:32:09.686Z,19.10
2022-11-22T11:34:37.841Z,19.10
2022-11-22T11:37:06.098Z,19.10
2022-11-22T11:39:34.666Z,19.10
2022-11-22T11:42:02.525Z,19.10
2022-11-22T11:44:32.022Z,19.10
2022-11-22T11:47:00.022Z,19.10
2022-11-22T11:49:30.102Z,19.10
2022-11-22T11:51:58.371Z,19.10
2022-11-22T11:54:27.288Z,19.10
2022-11-22T11:56:56.570Z,19.10
2022-11-22T11:59:25.820Z,19.10
2022-11-22T12:01:55.570Z,19.00
2022-11-22T12:04:24.753Z,19.10
2022-11-22T12:07:03.008Z,19.00
2022-11-22T12:09:33.811Z,19.00
2022-11-22T12:12:07.954Z,19.00
2022-11-22T12:15:03.339Z,19.00
2022-11-22T12:17:27.038Z,19.10
2022-11-22T12:19:57.790Z,19.10
2022-11-22T12:22:48.978Z,19.10
2022-11-22T12:25:37.295Z,19.00
2022-11-22T12:28:13.615Z,19.00
2022-11-22T12:30:41.859Z,19.00
2022-11-22T12:33:11.569Z,19.00
2022-11-22T12:35:43.704Z,19.00
2022-11-22T12:38:15.099Z,19.00
2022-11-22T12:40:43.703Z,19.00
2022-11-22T12:43:15.230Z,19.00
2022-11-22T12:45:44.252Z,19.00
2022-11-22T12:48:15.334Z,19.00
2022-11-22T12:50:44.154Z,19.10
2022-11-22T12:53:14.235Z,19.00
2022-11-22T12:55:45.367Z,19.00
2022-11-22T12:58:18.555Z,19.00
2022-11-22T13:00:53.368Z,19.00
2022-11-22T13:03:23.445Z,19.00
2022-11-22T13:05:52.743Z,19.00
2022-11-22T13:08:25.180Z,19.00
2022-11-22T13:10:54.080Z,19.00
2022-11-22T13:13:23.732Z,19.00
2022-11-22T13:15:52.237Z,19.00
2022-11-22T13:18:19.903Z,19.00
2022-11-22T13:20:51.081Z,19.00
2022-11-22T13:23:29.466Z,19.00
2022-11-22T13:26:02.513Z,19.00
2022-11-22T13:28:32.996Z,19.00
2022-11-22T13:31:06.755Z,19.00
2022-11-22T13:33:34.467Z,19.00
2022-11-22T13:36:24.881Z,19.00
2022-11-22T13:38:54.474Z,19.00
2022-11-22T13:41:23.138Z,19.00
2022-11-22T13:43:52.478Z,19.00
2022-11-22T13:46:54.943Z,19.00
2022-11-22T13:49:39.195Z,19.00
2022-11-22T13:52:28.756Z,19.10
2022-11-22T13:55:03.207Z,19.00
2022-11-22T13:57:35.631Z,19.00
2022-11-22T14:00:40.975Z,19.00
2022-11-22T14:03:23.161Z,18.90
2022-11-22T14:05:51.194Z,19.00
2022-11-22T14:08:31.654Z,18.90
2022-11-22T14:11:11.997Z,19.00
2022-11-22T14:13:43.261Z,19.00
2022-11-22T14:16:18.708Z,19.00
2022-11-22T14:18:51.027Z,19.00
2022-11-22T14:21:22.698Z,19.00
2022-11-22T14:23:57.108Z,19.00
2022-11-22T14:26:28.536Z,19.00
2022-11-22T14:29:07.615Z,19.00
2022-11-22T14:31:35.601Z,18.90
2022-11-22T14:34:22.635Z,18.90
2022-11-22T14:37:27.610Z,18.90
2022-11-22T14:40:15.485Z,18.90
2022-11-22T14:42:55.859Z,18.90
2022-11-22T14:45:26.991Z,18.90
2022-11-22T14:48:14.896Z,18.90
2022-11-22T14:50:43.677Z,18.90
2022-11-22T14:53:19.989Z,18.90
2022-11-22T14:55:48.968Z,18.90
2022-11-22T14:58:21.291Z,18.80
2022-11-22T15:00:59.443Z,18.90
2022-11-22T15:03:49.716Z,18.90
2022-11-22T15:09:16.478Z,18.90
2022-11-22T15:09:46.519Z,18.80
2022-11-22T15:12:20.277Z,18.80
2022-11-22T15:58:24.717Z,18.80
2022-11-22T16:00:52.439Z,18.80
2022-11-22T16:03:42.716Z,18.80
2022-11-22T16:06:15.244Z,18.80
2022-11-22T16:08:49.151Z,18.80
2022-11-22T16:11:19.516Z,18.80
2022-11-22T16:13:47.694Z,18.70
2022-11-22T16:16:20.133Z,18.70
2022-11-22T16:18:48.397Z,18.70
2022-11-22T16:21:27.768Z,18.70
2022-11-22T16:24:16.514Z,18.70
2022-11-22T16:26:50.350Z,18.70
2022-11-22T16:29:26.074Z,18.70
2022-11-22T16:32:00.603Z,18.70
2022-11-22T16:34:28.282Z,18.70
2022-11-22T16:36:57.339Z,18.70
2022-11-22T16:39:25.010Z,18.70
2022-11-22T16:41:52.667Z,18.70
2022-11-22T16:44:20.823Z,18.70
2022-11-22T16:46:48.565Z,18.70
2022-11-22T16:49:17.756Z,18.70
2022-11-22T16:51:46.386Z,18.70
2022-11-22T16:54:17.063Z,18.70
2022-11-22T16:56:44.802Z,18.70
2022-11-22T16:59:12.985Z,18.70
2022-11-22T17:01:41.321Z,18.70
2022-11-22T17:04:09.931Z,18.60
2022-11-22T17:06:37.617Z,18.60
2022-11-22T17:09:05.554Z,18.60
2022-11-22T17:11:34.863Z,18.60
2022-11-22T17:14:02.572Z,18.60
2022-11-22T17:16:30.339Z,18.60
2022-11-22T17:18:58.058Z,18.60
2022-11-22T17:21:27.872Z,18.60
2022-11-22T17:23:59.037Z,18.60
2022-11-22T17:26:26.794Z,18.60
2022-11-22T17:28:55.936Z,18.60
2022-11-22T17:31:25.028Z,18.60
2022-11-22T17:33:53.023Z,18.60
2022-11-22T17:36:22.583Z,18.60
2022-11-22T17:38:50.237Z,18.70
2022-11-22T17:41:17.974Z,18.60
2022-11-22T17:43:45.734Z,18.60
2022-11-22T17:46:14.746Z,18.50
2022-11-22T17:48:42.415Z,18.60
2022-11-22T17:51:11.309Z,18.60
2022-11-22T17:53:38.999Z,18.60
2022-11-22T17:56:11.397Z,18.60
2022-11-22T17:58:39.598Z,18.60
2022-11-22T18:01:08.206Z,18.60
2022-11-22T18:03:37.371Z,18.60
2022-11-22T18:06:05.565Z,18.60
2022-11-22T18:08:33.576Z,18.60
2022-11-22T18:11:01.411Z,18.60
2022-11-22T18:13:29.757Z,18.60
2022-11-22T18:16:03.222Z,18.60
2022-11-22T18:21:21.073Z,18.60
2022-11-22T18:23:48.976Z,18.60
2022-11-22T18:26:38.827Z,18.60
2022-11-22T18:31:53.423Z,18.50
2022-11-22T18:34:21.480Z,18.60
2022-11-22T18:36:55.899Z,18.60
2022-11-22T18:39:27.176Z,18.60
2022-11-22T18:41:54.863Z,18.60
2022-11-22T18:44:22.629Z,18.50
2022-11-22T18:46:50.339Z,18.50
2022-11-22T18:49:18.513Z,18.50
2022-11-22T18:51:46.332Z,18.60
2022-11-22T18:54:15.972Z,18.60
2022-11-22T18:56:43.653Z,18.60
2022-11-22T18:59:12.464Z,18.60
2022-11-22T19:01:40.640Z,18.60
2022-11-22T19:04:08.784Z,18.60
2022-11-22T19:06:36.561Z,18.60
2022-11-22T19:09:04.553Z,18.50
2022-11-22T19:11:34.007Z,18.50
2022-11-22T19:14:01.696Z,18.50
2022-11-22T19:16:30.169Z,18.50
2022-11-22T19:18:58.328Z,18.50
2022-11-22T19:21:27.798Z,18.50
2022-11-22T19:23:56.186Z,18.50
2022-11-22T19:26:24.829Z,18.50
2022-11-22T19:28:55.453Z,18.50
2022-11-22T19:31:24.348Z,18.50
2022-11-22T19:33:52.088Z,18.50
2022-11-22T19:36:20.680Z,18.50
2022-11-22T19:38:48.553Z,18.50
2022-11-22T19:41:17.495Z,18.50
2022-11-22T19:43:45.429Z,18.50
2022-11-22T19:46:14.631Z,18.50
2022-11-22T19:48:46.898Z,18.50
2022-11-22T19:51:16.161Z,18.40
2022-11-22T19:53:44.158Z,18.50
2022-11-22T19:56:13.623Z,18.40
2022-11-22T19:58:41.486Z,18.40
2022-11-22T20:01:10.194Z,18.40
2022-11-22T20:03:40.821Z,18.40
2022-11-22T20:06:09.388Z,18.50
2022-11-22T20:08:37.284Z,18.50
2022-11-22T20:11:06.070Z,18.40
2022-11-22T20:13:35.461Z,18.50
2022-11-22T20:16:06.816Z,18.50
2022-11-22T20:18:34.715Z,18.50
2022-11-22T20:21:04.103Z,18.50
2022-11-22T20:23:32.056Z,18.50
2022-11-22T20:26:02.474Z,18.50
2022-11-22T20:28:32.249Z,18.50
2022-11-22T20:31:07.212Z,18.50
2022-11-22T20:33:35.648Z,18.50
2022-11-22T20:36:05.296Z,18.40
2022-11-22T20:38:33.935Z,18.40
2022-11-22T20:41:01.673Z,18.40
2022-11-22T20:43:30.836Z,18.40
2022-11-22T20:46:02.006Z,18.40
2022-11-22T20:48:30.345Z,18.40
2022-11-22T20:50:58.026Z,18.40
2022-11-22T20:53:27.240Z,18.40
2022-11-22T20:55:55.029Z,18.40
2022-11-22T20:58:22.802Z,18.40
2022-11-22T21:00:50.686Z,18.40
2022-11-22T21:03:18.489Z,18.40
2022-11-22T21:05:46.431Z,18.40
2022-11-22T21:08:14.210Z,18.40
2022-11-22T21:10:43.213Z,18.40
2022-11-22T21:13:10.939Z,18.40
2022-11-22T21:15:38.667Z,18.40
2022-11-22T21:18:24.002Z,18.40
2022-11-22T21:20:52.744Z,18.30
2022-11-22T21:23:20.626Z,18.30
2022-11-22T21:25:51.645Z,18.30
2022-11-22T21:28:19.368Z,18.30
2022-11-22T21:30:47.064Z,18.30
2022-11-22T21:33:14.719Z,18.30
2022-11-22T21:35:45.533Z,18.30
2022-11-22T21:38:14.499Z,18.30
2022-11-22T21:40:58.368Z,18.30
2022-11-22T21:43:33.446Z,18.30
2022-11-22T21:46:01.130Z,18.30
2022-11-22T21:48:29.687Z,18.40
2022-11-22T21:50:57.605Z,18.40
2022-11-22T21:53:27.433Z,18.40
2022-11-22T21:55:57.061Z,18.40
2022-11-22T21:58:25.578Z,18.30
2022-11-22T22:00:57.326Z,18.30
2022-11-22T22:03:25.149Z,18.30
2022-11-22T22:05:52.935Z,18.30
2022-11-22T22:08:20.904Z,18.30
2022-11-22T22:10:49.206Z,18.30
2022-11-22T22:13:18.927Z,18.30
2022-11-22T22:15:46.757Z,18.30
2022-11-22T22:18:14.548Z,18.30
2022-11-22T22:20:42.300Z,18.30
2022-11-22T22:23:09.990Z,18.30
2022-11-22T22:25:39.995Z,18.30
2022-11-22T22:28:07.734Z,18.30
2022-11-22T22:30:36.710Z,18.30
2022-11-22T22:33:04.575Z,18.30
2022-11-22T22:35:32.291Z,18.30
2022-11-22T22:38:01.547Z,18.30
2022-11-22T22:40:29.430Z,18.30
2022-11-22T22:42:57.139Z,18.30
2022-11-22T22:45:24.799Z,18.30
2022-11-22T22:47:53.786Z,18.30
2022-11-22T22:50:21.526Z,18.30
2022-11-22T22:52:49.187Z,18.30
2022-11-22T22:55:16.890Z,18.30
2022-11-22T22:57:44.531Z,18.30
2022-11-22T23:00:13.329Z,18.30
2022-11-22T23:02:41.025Z,18.30
2022-11-22T23:05:10.278Z,18.30
2022-11-22T23:07:42.731Z,18.30
2022-11-22T23:10:11.791Z,18.30
2022-11-22T23:12:39.467Z,18.30
2022-11-22T23:15:07.974Z,18.30
2022-11-22T23:17:35.662Z,18.30
2022-11-22T23:20:03.335Z,18.30
2022-11-22T23:22:32.340Z,18.30
2022-11-22T23:25:00.004Z,18.30
2022-11-22T23:27:27.722Z,18.30
2022-11-22T23:29:55.410Z,18.20
2022-11-22T23:32:23.093Z,18.20
2022-11-22T23:34:50.737Z,18.20
2022-11-22T23:37:18.407Z,18.20
2022-11-22T23:39:47.396Z,18.20
2022-11-22T23:42:15.067Z,18.20
2022-11-22T23:44:42.727Z,18.20
2022-11-22T23:47:10.905Z,18.20
2022-11-22T23:49:38.608Z,18.20
2022-11-22T23:52:06.288Z,18.20
2022-11-22T23:54:33.957Z,18.20
2022-11-22T23:57:02.959Z,18.20
2022-11-22T23:59:30.889Z,18.20
